Barbarossa — IBJD — position and weather

sailwx.info

Track history (hours):
 
Tides and Currents Weather Stations Pressure Air Temp Water Temp Dewpoint Dewpoint Depression Visibility Wind Speed Wind Dir Waves Ship Positions

Barbarossa

Last reported at 2017-May-28 23:29 UTC. Time now 2017-May-29 17:05 UTC.
Position N 43°48' E 014°20'.

Length 294 m; draft 8.1 m.

Type: Passenger vessel. MMSI: 247282900.

Date/timePositionNaut miles runAvg speedWind from/ knotsBaromVisibWave heightAir tempDewpointWater temp
2017-May-28 23:29N 43°48' E 014°20'918.2
2017-May-28 23:00N 43°55' E 014°13'918.3
2017-May-28 22:30N 44°03' E 014°06'918.2
2017-May-28 22:00N 44°10' E 013°58'918.2
2017-May-28 21:30N 44°18' E 013°52'917.8
2017-May-28 21:01N 44°25' E 013°45'917.5
2017-May-28 20:31N 44°32' E 013°38'917.3
2017-May-28 20:01N 44°39' E 013°31'917.4
2017-May-28 19:31N 44°47' E 013°25'917.5
2017-May-28 19:01N 44°54' E 013°18'917.1
2017-May-28 18:31N 45°00' E 013°09'917.3
2017-May-28 18:01N 45°06' E 013°01'917.1
2017-May-28 17:30N 45°12' E 012°52'917.2
2017-May-28 17:01N 45°17' E 012°42'816.9
2017-May-28 16:31N 45°22' E 012°32'713.2
2017-May-28 16:01N 45°26' E 012°25'3 5.7
2017-May-28 15:30N 45°26' E 012°21'1 2.8
2017-May-28 15:01N 45°26' E 012°19'0 0.0
2017-May-28 13:56N 45°26' E 012°19'0 0.0
2017-May-28 13:29N 45°26' E 012°19'0 0.0
2017-May-28 12:59N 45°26' E 012°19'0 0.0
2017-May-28 12:26N 45°26' E 012°19'0 0.0
2017-May-28 11:58N 45°26' E 012°19'0 0.0
2017-May-28 11:28N 45°26' E 012°19'0 0.0
2017-May-28 10:57N 45°26' E 012°19'0 0.0
2017-May-28 10:30N 45°26' E 012°19'0 0.0
2017-May-28 09:59N 45°26' E 012°19'0 0.0
2017-May-28 09:27N 45°26' E 012°19'0 0.0
2017-May-28 09:00N 45°26' E 012°19'0 0.0
2017-May-28 08:30N 45°26' E 012°19'0 0.0
2017-May-28 08:00N 45°26' E 012°19'0 0.0
2017-May-28 07:30N 45°26' E 012°19'0 0.0
2017-May-28 07:00N 45°26' E 012°19'0 0.0
2017-May-28 06:29N 45°26' E 012°19'0 0.0
2017-May-28 05:55N 45°26' E 012°19'1 1.3
2017-May-28 05:30N 45°26' E 012°19'3 5.1
2017-May-28 05:00N 45°26' E 012°23'4 8.0
2017-May-28 04:30N 45°24' E 012°28'612.3
2017-May-28 04:01N 45°21' E 012°36'815.9
2017-May-28 03:31N 45°17' E 012°45'816.8
2017-May-28 03:00N 45°12' E 012°54'918.4
2017-May-28 02:30N 45°04' E 013°02'918.2
2017-May-28 02:01N 44°59' E 013°13'918.1
2017-May-28 01:30N 44°54' E 013°23'918.3
2017-May-28 01:01N 44°46' E 013°30'918.3
2017-May-28 00:31N 44°39' E 013°37'918.2
2017-May-28 00:01N 44°31' E 013°44'918.3
2017-May-27 23:31N 44°23' E 013°51'918.4
2017-May-27 23:00N 44°16' E 013°59'918.6
2017-May-27 22:31N 44°08' E 014°06'918.6
2017-May-27 22:00N 44°04' E 014°18'918.6
2017-May-27 21:30N 44°00' E 014°29'11618.0
2017-May-27 15:05N 42°49' E 016°35'218.0
2017-May-27 15:00N 42°48' E 016°36'46810.3
2017-May-25 17:29N 37°04' E 023°30'815.9
2017-May-25 17:00N 37°10' E 023°36'816.1
2017-May-25 16:31N 37°16' E 023°42'1815.7
2017-May-25 15:21N 37°35' E 023°43'515.5
2017-May-25 15:01N 37°40' E 023°42'815.4
2017-May-25 14:31N 37°47' E 023°38'9 9.2
2017-May-25 13:29N 37°56' E 023°38'0 0.0
2017-May-25 12:59N 37°56' E 023°38'0 0.0
2017-May-25 12:29N 37°56' E 023°38'0 0.0
2017-May-25 11:56N 37°56' E 023°38'0 0.0
2017-May-25 11:29N 37°56' E 023°38'0 0.0
2017-May-25 10:59N 37°56' E 023°38'0 0.0
2017-May-25 10:29N 37°56' E 023°38'0 0.0
2017-May-25 09:59N 37°56' E 023°38'0 0.0
2017-May-25 09:29N 37°56' E 023°38'0 0.1
2017-May-25 08:59N 37°56' E 023°38'0 0.0
2017-May-25 08:29N 37°56' E 023°38'0 0.0
2017-May-25 06:35N 37°56' E 023°38'0 0.0
2017-May-25 06:29N 37°56' E 023°38'0 0.0
2017-May-25 05:59N 37°56' E 023°38'0 0.0
2017-May-25 05:29N 37°56' E 023°38'0 0.0
2017-May-25 05:00N 37°56' E 023°38'1 2.2
2017-May-25 04:30N 37°56' E 023°37'1 2.5
2017-May-25 04:00N 37°55' E 023°37'1 1.4
2017-May-25 03:30N 37°54' E 023°38'510.0
2017-May-25 03:00N 37°49' E 023°40'612.0
2017-May-25 02:30N 37°44' E 023°44'613.0
2017-May-25 02:01N 37°38' E 023°46'714.6
2017-May-25 01:31N 37°31' E 023°49'714.5
2017-May-25 01:01N 37°24' E 023°51'714.2
2017-May-25 00:31N 37°17' E 023°53'713.9
2017-May-25 00:00N 37°10' E 023°56'713.7
2017-May-24 23:30N 37°04' E 023°58'714.0
2017-May-24 23:00N 36°57' E 024°00'714.7
2017-May-24 22:30N 36°50' E 024°03'714.5
2017-May-24 22:00N 36°43' E 024°05'714.6
2017-May-24 21:30N 36°38' E 024°12'714.5
2017-May-24 21:00N 36°32' E 024°18'24 1.5
2017-May-24 05:10N 36°21' E 023°52'316.2
2017-May-24 04:59N 36°21' E 023°48'  
2017-May-21 23:15N 43°51' E 014°17'418.1
2017-May-21 23:01N 43°55' E 014°14'918.0
2017-May-21 22:29N 44°02' E 014°06'918.0
2017-May-21 22:01N 44°10' E 013°59'918.0
2017-May-21 21:31N 44°17' E 013°52'918.2
2017-May-21 21:00N 44°25' E 013°45'918.2
2017-May-21 20:31N 44°32' E 013°38'918.1
2017-May-21 20:00N 44°40' E 013°31'918.0
2017-May-21 19:31N 44°47' E 013°24'917.7
2017-May-21 19:00N 44°55' E 013°17'917.4
2017-May-21 18:30N 45°01' E 013°09'917.3
2017-May-21 18:00N 45°07' E 012°60'816.8
2017-May-21 17:30N 45°13' E 012°51'816.8
2017-May-21 17:01N 45°18' E 012°42'816.4
2017-May-21 16:30N 45°22' E 012°32'612.5
2017-May-21 16:00N 45°26' E 012°25'3 5.6
2017-May-21 15:30N 45°26' E 012°21'1 2.7
2017-May-21 14:58N 45°26' E 012°19'0 0.0
2017-May-21 14:30N 45°26' E 012°19'0 0.0
2017-May-21 13:29N 45°26' E 012°19'0 0.0
2017-May-21 12:59N 45°26' E 012°19'0 0.0
2017-May-21 12:29N 45°26' E 012°19'0 0.0
2017-May-21 11:59N 45°26' E 012°19'0 0.0
2017-May-21 11:29N 45°26' E 012°19'0 0.0
2017-May-21 10:59N 45°26' E 012°19'0 0.0
2017-May-21 10:29N 45°26' E 012°19'0 0.0
2017-May-21 09:59N 45°26' E 012°19'0 0.0
2017-May-21 09:29N 45°26' E 012°19'0 0.0
2017-May-21 08:59N 45°26' E 012°19'0 0.0
2017-May-21 08:29N 45°26' E 012°19'0 0.0
2017-May-21 07:59N 45°26' E 012°19'0 0.0
2017-May-21 07:29N 45°26' E 012°19'0 0.0
2017-May-21 06:59N 45°26' E 012°19'0 0.0
2017-May-21 06:31N 45°26' E 012°19'2 4.1
2017-May-21 06:00N 45°26' E 012°21'4 7.1
2017-May-21 05:30N 45°25' E 012°26'612.5
2017-May-21 05:00N 45°22' E 012°34'816.7
2017-May-21 04:30N 45°18' E 012°44'816.6
2017-May-21 04:00N 45°12' E 012°53'917.8
2017-May-21 03:31N 45°05' E 012°60'917.5
2017-May-21 03:00N 45°00' E 013°10'917.6
2017-May-21 02:30N 44°56' E 013°21'917.6
2017-May-21 02:00N 44°48' E 013°28'917.9
2017-May-21 01:30N 44°41' E 013°35'917.8
2017-May-21 01:00N 44°34' E 013°42'917.7
2017-May-21 00:30N 44°26' E 013°49'917.5
2017-May-21 00:00N 44°19' E 013°57'917.5
2017-May-20 23:30N 44°12' E 014°04'917.0
2017-May-20 23:00N 44°06' E 014°12'28410.5
2017-May-19 19:53N 40°44' E 018°42'714.4
2017-May-19 19:24N 40°37' E 018°45'  
Track history (hours):
 
Tides and Currents Weather Stations Pressure Air Temp Water Temp Dewpoint Dewpoint Depression Visibility Wind Speed Wind Dir Waves Ship Positions

Barbarossa

Last reported at 2017-May-28 23:29 UTC. Time now 2017-May-29 17:05 UTC.
Position N 43°48' E 014°20'.

Length 294 m; draft 8.1 m.

Type: Passenger vessel. MMSI: 247282900.

Date/timePositionNaut miles runAvg speedWind from/ knotsBaromVisibWave heightAir tempDewpointWater temp
2017-May-28 23:29N 43°48' E 014°20'918.2
2017-May-28 23:00N 43°55' E 014°13'918.3
2017-May-28 22:30N 44°03' E 014°06'918.2
2017-May-28 22:00N 44°10' E 013°58'918.2
2017-May-28 21:30N 44°18' E 013°52'917.8
2017-May-28 21:01N 44°25' E 013°45'917.5
2017-May-28 20:31N 44°32' E 013°38'917.3
2017-May-28 20:01N 44°39' E 013°31'917.4
2017-May-28 19:31N 44°47' E 013°25'917.5
2017-May-28 19:01N 44°54' E 013°18'917.1
2017-May-28 18:31N 45°00' E 013°09'917.3
2017-May-28 18:01N 45°06' E 013°01'917.1
2017-May-28 17:30N 45°12' E 012°52'917.2
2017-May-28 17:01N 45°17' E 012°42'816.9
2017-May-28 16:31N 45°22' E 012°32'713.2
2017-May-28 16:01N 45°26' E 012°25'3 5.7
2017-May-28 15:30N 45°26' E 012°21'1 2.8
2017-May-28 15:01N 45°26' E 012°19'0 0.0
2017-May-28 13:56N 45°26' E 012°19'0 0.0
2017-May-28 13:29N 45°26' E 012°19'0 0.0
2017-May-28 12:59N 45°26' E 012°19'0 0.0
2017-May-28 12:26N 45°26' E 012°19'0 0.0
2017-May-28 11:58N 45°26' E 012°19'0 0.0
2017-May-28 11:28N 45°26' E 012°19'0 0.0
2017-May-28 10:57N 45°26' E 012°19'0 0.0
2017-May-28 10:30N 45°26' E 012°19'0 0.0
2017-May-28 09:59N 45°26' E 012°19'0 0.0
2017-May-28 09:27N 45°26' E 012°19'0 0.0
2017-May-28 09:00N 45°26' E 012°19'0 0.0
2017-May-28 08:30N 45°26' E 012°19'0 0.0
2017-May-28 08:00N 45°26' E 012°19'0 0.0
2017-May-28 07:30N 45°26' E 012°19'0 0.0
2017-May-28 07:00N 45°26' E 012°19'0 0.0
2017-May-28 06:29N 45°26' E 012°19'0 0.0
2017-May-28 05:55N 45°26' E 012°19'1 1.3
2017-May-28 05:30N 45°26' E 012°19'3 5.1
2017-May-28 05:00N 45°26' E 012°23'4 8.0
2017-May-28 04:30N 45°24' E 012°28'612.3
2017-May-28 04:01N 45°21' E 012°36'815.9
2017-May-28 03:31N 45°17' E 012°45'816.8
2017-May-28 03:00N 45°12' E 012°54'918.4
2017-May-28 02:30N 45°04' E 013°02'918.2
2017-May-28 02:01N 44°59' E 013°13'918.1
2017-May-28 01:30N 44°54' E 013°23'918.3
2017-May-28 01:01N 44°46' E 013°30'918.3
2017-May-28 00:31N 44°39' E 013°37'918.2
2017-May-28 00:01N 44°31' E 013°44'918.3
2017-May-27 23:31N 44°23' E 013°51'918.4
2017-May-27 23:00N 44°16' E 013°59'918.6
2017-May-27 22:31N 44°08' E 014°06'918.6
2017-May-27 22:00N 44°04' E 014°18'918.6
2017-May-27 21:30N 44°00' E 014°29'11618.0
2017-May-27 15:05N 42°49' E 016°35'218.0
2017-May-27 15:00N 42°48' E 016°36'46810.3
2017-May-25 17:29N 37°04' E 023°30'815.9
2017-May-25 17:00N 37°10' E 023°36'816.1
2017-May-25 16:31N 37°16' E 023°42'1815.7
2017-May-25 15:21N 37°35' E 023°43'515.5
2017-May-25 15:01N 37°40' E 023°42'815.4
2017-May-25 14:31N 37°47' E 023°38'9 9.2
2017-May-25 13:29N 37°56' E 023°38'0 0.0
2017-May-25 12:59N 37°56' E 023°38'0 0.0
2017-May-25 12:29N 37°56' E 023°38'0 0.0
2017-May-25 11:56N 37°56' E 023°38'0 0.0
2017-May-25 11:29N 37°56' E 023°38'0 0.0
2017-May-25 10:59N 37°56' E 023°38'0 0.0
2017-May-25 10:29N 37°56' E 023°38'0 0.0
2017-May-25 09:59N 37°56' E 023°38'0 0.0
2017-May-25 09:29N 37°56' E 023°38'0 0.1
2017-May-25 08:59N 37°56' E 023°38'0 0.0
2017-May-25 08:29N 37°56' E 023°38'0 0.0
2017-May-25 06:35N 37°56' E 023°38'0 0.0
2017-May-25 06:29N 37°56' E 023°38'0 0.0
2017-May-25 05:59N 37°56' E 023°38'0 0.0
2017-May-25 05:29N 37°56' E 023°38'0 0.0
2017-May-25 05:00N 37°56' E 023°38'1 2.2
2017-May-25 04:30N 37°56' E 023°37'1 2.5
2017-May-25 04:00N 37°55' E 023°37'1 1.4
2017-May-25 03:30N 37°54' E 023°38'510.0
2017-May-25 03:00N 37°49' E 023°40'612.0
2017-May-25 02:30N 37°44' E 023°44'613.0
2017-May-25 02:01N 37°38' E 023°46'714.6
2017-May-25 01:31N 37°31' E 023°49'714.5
2017-May-25 01:01N 37°24' E 023°51'714.2
2017-May-25 00:31N 37°17' E 023°53'713.9
2017-May-25 00:00N 37°10' E 023°56'713.7
2017-May-24 23:30N 37°04' E 023°58'714.0
2017-May-24 23:00N 36°57' E 024°00'714.7
2017-May-24 22:30N 36°50' E 024°03'714.5
2017-May-24 22:00N 36°43' E 024°05'714.6
2017-May-24 21:30N 36°38' E 024°12'714.5
2017-May-24 21:00N 36°32' E 024°18'24 1.5
2017-May-24 05:10N 36°21' E 023°52'316.2
2017-May-24 04:59N 36°21' E 023°48'  
2017-May-21 23:15N 43°51' E 014°17'418.1
2017-May-21 23:01N 43°55' E 014°14'918.0
2017-May-21 22:29N 44°02' E 014°06'918.0
2017-May-21 22:01N 44°10' E 013°59'918.0
2017-May-21 21:31N 44°17' E 013°52'918.2
2017-May-21 21:00N 44°25' E 013°45'918.2
2017-May-21 20:31N 44°32' E 013°38'918.1
2017-May-21 20:00N 44°40' E 013°31'918.0
2017-May-21 19:31N 44°47' E 013°24'917.7
2017-May-21 19:00N 44°55' E 013°17'917.4
2017-May-21 18:30N 45°01' E 013°09'917.3
2017-May-21 18:00N 45°07' E 012°60'816.8
2017-May-21 17:30N 45°13' E 012°51'816.8
2017-May-21 17:01N 45°18' E 012°42'816.4
2017-May-21 16:30N 45°22' E 012°32'612.5
2017-May-21 16:00N 45°26' E 012°25'3 5.6
2017-May-21 15:30N 45°26' E 012°21'1 2.7
2017-May-21 14:58N 45°26' E 012°19'0 0.0
2017-May-21 14:30N 45°26' E 012°19'0 0.0
2017-May-21 13:29N 45°26' E 012°19'0 0.0
2017-May-21 12:59N 45°26' E 012°19'0 0.0
2017-May-21 12:29N 45°26' E 012°19'0 0.0
2017-May-21 11:59N 45°26' E 012°19'0 0.0
2017-May-21 11:29N 45°26' E 012°19'0 0.0
2017-May-21 10:59N 45°26' E 012°19'0 0.0
2017-May-21 10:29N 45°26' E 012°19'0 0.0
2017-May-21 09:59N 45°26' E 012°19'0 0.0
2017-May-21 09:29N 45°26' E 012°19'0 0.0
2017-May-21 08:59N 45°26' E 012°19'0 0.0
2017-May-21 08:29N 45°26' E 012°19'0 0.0
2017-May-21 07:59N 45°26' E 012°19'0 0.0
2017-May-21 07:29N 45°26' E 012°19'0 0.0
2017-May-21 06:59N 45°26' E 012°19'0 0.0
2017-May-21 06:31N 45°26' E 012°19'2 4.1
2017-May-21 06:00N 45°26' E 012°21'4 7.1
2017-May-21 05:30N 45°25' E 012°26'612.5
2017-May-21 05:00N 45°22' E 012°34'816.7
2017-May-21 04:30N 45°18' E 012°44'816.6
2017-May-21 04:00N 45°12' E 012°53'917.8
2017-May-21 03:31N 45°05' E 012°60'917.5
2017-May-21 03:00N 45°00' E 013°10'917.6
2017-May-21 02:30N 44°56' E 013°21'917.6
2017-May-21 02:00N 44°48' E 013°28'917.9
2017-May-21 01:30N 44°41' E 013°35'917.8
2017-May-21 01:00N 44°34' E 013°42'917.7
2017-May-21 00:30N 44°26' E 013°49'917.5
2017-May-21 00:00N 44°19' E 013°57'917.5
2017-May-20 23:30N 44°12' E 014°04'917.0
2017-May-20 23:00N 44°06' E 014°12'28410.5
2017-May-19 19:53N 40°44' E 018°42'714.4
2017-May-19 19:24N 40°37' E 018°45'  

Dump ship's entire track history